Cordele, Georgia
Current Conditions -  °F | °C
As of 1:15 AM on Sunday 23 Nov 2014 (Local Time) from KCKF Reporting Station
Light Rain Light Rain  
Wind Chill: 59°   Ceiling: 700
Heat Index: 59°   Visibility: 10mi
Dew Point: 57°   Wind: 9mph
Humidity: 93%   Direction: 110°ESE
Pressure: 30.12"   Gusts: NA
Location:  31.97°N, 83.78°W
Report Text: KCKF 230615Z AUTO 11008KT 10SM -RA BKN007 BKN015 OVC110 15/14 A3012 RMK AO2 T01510140
Loading
Personal Weather Stations






























Interactive Weather Map New forecast layout! Learn more

10-Day Weather Forecast

Advertisements
Track Severe Weather on mobile